createdAt,value
2023-02-22T00:01:35.272Z,20.85
2023-02-22T00:04:07.010Z,20.45
2023-02-22T00:06:34.009Z,22.15
2023-02-22T00:09:02.361Z,23.20
2023-02-22T00:11:28.924Z,22.63
2023-02-22T00:13:57.405Z,20.95
2023-02-22T00:16:25.988Z,20.27
2023-02-22T00:18:53.456Z,20.25
2023-02-22T00:21:20.853Z,19.15
2023-02-22T00:23:48.166Z,19.10
2023-02-22T00:26:20.455Z,19.80
2023-02-22T00:28:52.783Z,18.38
2023-02-22T00:31:21.104Z,19.35
2023-02-22T00:33:47.843Z,19.83
2023-02-22T00:36:14.917Z,18.60
2023-02-22T00:38:42.174Z,21.40
2023-02-22T00:41:09.291Z,20.55
2023-02-22T00:43:36.058Z,19.50
2023-02-22T00:46:03.218Z,20.70
2023-02-22T00:48:29.866Z,19.08
2023-02-22T00:50:56.608Z,21.38
2023-02-22T00:53:25.511Z,20.52
2023-02-22T00:55:52.760Z,21.38
2023-02-22T00:58:19.442Z,19.83
2023-02-22T01:00:46.749Z,20.35
2023-02-22T01:03:15.933Z,19.60
2023-02-22T01:05:43.277Z,19.02
2023-02-22T01:08:12.269Z,21.40
2023-02-22T01:10:40.283Z,18.48
2023-02-22T01:13:12.540Z,20.00
2023-02-22T01:15:41.586Z,18.80
2023-02-22T01:18:09.501Z,18.60
2023-02-22T01:20:36.899Z,17.77
2023-02-22T01:23:07.745Z,19.75
2023-02-22T01:25:35.558Z,17.55
2023-02-22T01:28:03.661Z,17.77
2023-02-22T01:30:33.330Z,17.55
2023-02-22T01:33:01.538Z,18.13
2023-02-22T01:35:34.331Z,17.30
2023-02-22T01:38:00.957Z,17.30
2023-02-22T01:40:37.182Z,16.50
2023-02-22T01:43:15.619Z,19.15
2023-02-22T01:45:58.383Z,16.83
2023-02-22T01:49:00.625Z,17.30
2023-02-22T01:51:29.027Z,16.17
2023-02-22T01:53:57.306Z,15.70
2023-02-22T01:56:26.708Z,15.93
2023-02-22T01:58:59.728Z,16.02
2023-02-22T02:01:27.102Z,15.88
2023-02-22T02:03:58.318Z,16.65
2023-02-22T02:06:26.162Z,14.93
2023-02-22T02:09:00.654Z,15.40
2023-02-22T02:11:27.630Z,12.10
2023-02-22T02:13:56.451Z,15.27
2023-02-22T02:16:26.168Z,16.13
2023-02-22T02:18:53.435Z,15.00
2023-02-22T02:21:44.587Z,17.58
2023-02-22T02:24:44.699Z,15.43
2023-02-22T02:27:13.091Z,15.07
2023-02-22T02:30:03.929Z,15.00
2023-02-22T02:32:50.232Z,15.90
2023-02-22T02:35:47.901Z,14.98
2023-02-22T02:38:23.392Z,14.32
2023-02-22T02:41:05.392Z,14.60
2023-02-22T02:43:58.676Z,16.15
2023-02-22T02:46:35.720Z,15.07
2023-02-22T02:49:08.475Z,15.20
2023-02-22T02:51:40.326Z,14.35
2023-02-22T02:54:08.252Z,16.85
2023-02-22T02:56:35.060Z,15.90
2023-02-22T02:59:01.606Z,16.02
2023-02-22T03:02:05.504Z,15.65
2023-02-22T03:04:56.457Z,15.57
2023-02-22T03:07:55.749Z,15.30
2023-02-22T03:10:40.364Z,16.42
2023-02-22T03:13:23.348Z,16.67
2023-02-22T03:15:49.818Z,17.17
2023-02-22T03:18:25.239Z,14.30
2023-02-22T03:21:18.167Z,16.13
2023-02-22T03:24:30.420Z,17.20
2023-02-22T03:27:09.444Z,16.73
2023-02-22T03:29:41.063Z,16.33
2023-02-22T03:32:12.539Z,16.65
2023-02-22T03:34:47.954Z,17.13
2023-02-22T03:37:19.904Z,15.55
2023-02-22T03:39:49.443Z,17.10
2023-02-22T03:42:31.237Z,16.17
2023-02-22T03:45:00.932Z,16.50
2023-02-22T03:47:45.789Z,16.63
2023-02-22T03:50:35.756Z,16.15
2023-02-22T03:53:02.669Z,16.70
2023-02-22T03:55:31.409Z,15.35
2023-02-22T03:57:59.958Z,15.85
2023-02-22T04:00:30.072Z,15.05
2023-02-22T04:02:56.971Z,16.90
2023-02-22T04:05:25.035Z,16.75
2023-02-22T04:07:56.729Z,15.38
2023-02-22T04:10:24.262Z,16.17
2023-02-22T04:12:51.058Z,16.98
2023-02-22T04:15:22.299Z,15.52
2023-02-22T04:17:49.012Z,15.45
2023-02-22T04:20:19.995Z,16.42
2023-02-22T04:22:47.423Z,16.98
2023-02-22T04:25:14.465Z,16.50
2023-02-22T04:27:41.048Z,16.40
2023-02-22T04:30:08.251Z,16.05
2023-02-22T04:32:34.856Z,16.48
2023-02-22T04:35:01.417Z,15.75
2023-02-22T04:37:27.988Z,16.52
2023-02-22T04:39:54.581Z,17.95
2023-02-22T04:42:21.167Z,17.05
2023-02-22T04:44:47.777Z,16.60
2023-02-22T04:47:15.110Z,17.85
2023-02-22T04:49:41.688Z,16.92
2023-02-22T04:52:08.273Z,16.73
2023-02-22T04:54:34.779Z,16.13
2023-02-22T04:57:01.320Z,16.98
2023-02-22T04:59:27.892Z,16.58
2023-02-22T05:01:54.859Z,15.82
2023-02-22T05:04:21.857Z,16.65
2023-02-22T05:06:48.652Z,17.67
2023-02-22T05:09:15.257Z,18.23
2023-02-22T05:11:41.805Z,17.05
2023-02-22T05:14:08.379Z,16.92
2023-02-22T05:16:35.979Z,17.98
2023-02-22T05:19:02.568Z,18.17
2023-02-22T05:21:29.201Z,19.15
2023-02-22T05:23:55.784Z,17.60
2023-02-22T05:26:22.335Z,17.17
2023-02-22T05:28:48.940Z,17.75
2023-02-22T05:31:15.930Z,19.15
2023-02-22T05:33:43.147Z,18.48
2023-02-22T05:36:09.897Z,20.77
2023-02-22T05:38:43.230Z,18.65
2023-02-22T05:41:11.878Z,18.92
2023-02-22T05:43:39.687Z,20.02
2023-02-22T05:46:06.457Z,19.40
2023-02-22T05:48:33.133Z,18.77
2023-02-22T05:50:59.728Z,20.63
2023-02-22T05:53:28.761Z,20.50
2023-02-22T05:55:55.340Z,20.85
2023-02-22T05:58:22.210Z,20.77
2023-02-22T06:00:48.846Z,20.55
2023-02-22T06:03:15.473Z,20.38
2023-02-22T06:05:42.045Z,21.92
2023-02-22T06:08:08.970Z,20.52
2023-02-22T06:10:35.465Z,20.70
2023-02-22T06:13:03.341Z,23.13
2023-02-22T06:15:30.552Z,22.52
2023-02-22T06:17:58.897Z,23.33
2023-02-22T06:20:26.844Z,20.13
2023-02-22T06:22:56.084Z,21.88
2023-02-22T06:25:25.534Z,20.52
2023-02-22T06:27:52.254Z,22.25
2023-02-22T06:30:21.481Z,22.17
2023-02-22T06:32:48.257Z,23.02
2023-02-22T06:35:15.946Z,22.95
2023-02-22T06:37:42.533Z,20.90
2023-02-22T06:40:11.264Z,23.30
2023-02-22T06:42:38.657Z,22.98
2023-02-22T06:45:05.457Z,22.27
2023-02-22T06:47:32.063Z,21.52
2023-02-22T06:50:01.041Z,22.88
2023-02-22T06:52:27.614Z,22.58
2023-02-22T06:54:54.196Z,22.48
2023-02-22T06:57:20.753Z,24.23
2023-02-22T06:59:47.334Z,23.73
2023-02-22T07:02:14.633Z,22.42
2023-02-22T07:04:43.404Z,21.77
2023-02-22T07:07:10.674Z,24.45
2023-02-22T07:09:37.311Z,24.60
2023-02-22T07:12:04.033Z,24.15
2023-02-22T07:14:30.584Z,24.63
2023-02-22T07:16:57.159Z,24.67
2023-02-22T07:19:24.771Z,23.48
2023-02-22T07:21:55.373Z,24.10
2023-02-22T07:24:21.984Z,25.77
2023-02-22T07:26:48.618Z,25.60
2023-02-22T07:29:15.181Z,24.92
2023-02-22T07:31:41.719Z,25.23
2023-02-22T07:34:08.264Z,23.70
2023-02-22T07:36:34.905Z,23.35
2023-02-22T07:39:01.510Z,23.10
2023-02-22T07:41:28.162Z,24.50
2023-02-22T07:43:54.683Z,24.05
2023-02-22T07:46:21.256Z,23.23
2023-02-22T07:48:47.814Z,23.63
2023-02-22T07:51:17.021Z,22.08
2023-02-22T07:53:43.820Z,24.52
2023-02-22T07:56:10.392Z,22.55
2023-02-22T07:58:37.034Z,22.73
2023-02-22T08:01:04.413Z,22.08
2023-02-22T08:03:34.441Z,22.30
2023-02-22T08:06:02.965Z,24.52
2023-02-22T08:08:29.594Z,21.92
2023-02-22T08:10:56.888Z,21.77
2023-02-22T08:13:24.213Z,21.70
2023-02-22T08:15:53.532Z,21.70
2023-02-22T08:18:21.778Z,22.60
2023-02-22T08:20:51.911Z,23.08
2023-02-22T08:23:20.208Z,23.05
2023-02-22T08:25:46.763Z,23.90
2023-02-22T08:28:16.482Z,24.40
2023-02-22T08:30:46.336Z,23.83
2023-02-22T08:33:16.789Z,22.73
2023-02-22T08:35:43.748Z,21.38
2023-02-22T08:38:23.897Z,20.77
2023-02-22T08:40:51.130Z,21.85
2023-02-22T08:43:18.957Z,21.33
2023-02-22T08:45:45.818Z,22.98
2023-02-22T08:48:14.083Z,21.92
2023-02-22T08:50:41.926Z,24.50
2023-02-22T08:53:10.126Z,23.42
2023-02-22T08:55:38.665Z,24.55
2023-02-22T08:58:09.431Z,23.60
2023-02-22T09:00:38.827Z,23.58
2023-02-22T09:03:08.138Z,25.15
2023-02-22T09:05:34.789Z,24.95
2023-02-22T09:08:01.689Z,25.23
2023-02-22T09:10:33.347Z,22.55
2023-02-22T09:13:01.169Z,21.83
2023-02-22T09:15:28.721Z,21.42
2023-02-22T09:17:55.873Z,21.08
2023-02-22T09:20:27.089Z,20.55
2023-02-22T09:22:54.718Z,21.90
2023-02-22T09:25:23.287Z,19.95
2023-02-22T09:27:51.661Z,23.85
2023-02-22T09:30:27.231Z,20.83
2023-02-22T09:32:56.515Z,20.65
2023-02-22T09:35:27.444Z,21.60
2023-02-22T09:37:58.806Z,23.10
2023-02-22T09:40:30.232Z,19.80
2023-02-22T09:43:24.897Z,21.83
2023-02-22T09:46:06.453Z,19.88
2023-02-22T09:48:36.370Z,17.73
2023-02-22T09:51:16.928Z,19.52
2023-02-22T09:53:48.455Z,20.58
2023-02-22T09:56:18.752Z,21.00
2023-02-22T09:58:48.779Z,21.70
2023-02-22T10:01:27.123Z,20.25
2023-02-22T10:04:05.336Z,20.52
2023-02-22T10:06:33.887Z,20.50
2023-02-22T10:09:07.800Z,18.50
2023-02-22T10:12:02.996Z,19.48
2023-02-22T10:15:00.682Z,20.73
2023-02-22T10:17:30.472Z,20.42
2023-02-22T10:20:06.089Z,18.73
2023-02-22T10:22:48.869Z,18.42
2023-02-22T10:25:20.146Z,20.50
2023-02-22T10:27:52.593Z,18.73
2023-02-22T10:30:34.031Z,20.38
2023-02-22T10:33:21.512Z,19.25
2023-02-22T10:35:48.773Z,20.48
2023-02-22T10:38:27.862Z,19.50
2023-02-22T10:41:00.483Z,19.77
2023-02-22T10:43:27.415Z,19.63
2023-02-22T10:45:58.353Z,17.23
2023-02-22T10:48:26.596Z,18.30
2023-02-22T10:50:57.304Z,17.83
2023-02-22T10:53:26.283Z,20.67
2023-02-22T10:56:26.541Z,18.55
2023-02-22T10:59:00.540Z,18.02
2023-02-22T11:01:31.569Z,19.65
2023-02-22T11:04:00.969Z,19.85
2023-02-22T11:06:28.730Z,17.60
2023-02-22T11:09:13.547Z,19.02
2023-02-22T11:11:43.786Z,16.55
2023-02-22T11:14:11.562Z,18.02
2023-02-22T11:16:52.522Z,17.92
2023-02-22T11:19:24.781Z,17.15
2023-02-22T11:21:55.288Z,15.93
2023-02-22T11:24:24.749Z,17.33
2023-02-22T11:26:56.303Z,18.55
2023-02-22T11:29:34.393Z,17.75
2023-02-22T11:32:11.791Z,16.90
2023-02-22T11:34:40.800Z,16.13
2023-02-22T11:37:22.403Z,16.98
2023-02-22T11:40:03.806Z,16.23
2023-02-22T11:42:30.352Z,15.48
2023-02-22T11:45:27.470Z,15.27
2023-02-22T11:48:00.507Z,17.13
2023-02-22T11:50:39.654Z,14.60
2023-02-22T11:53:12.020Z,15.52
2023-02-22T11:56:01.550Z,14.95
2023-02-22T11:58:47.241Z,16.73
2023-02-22T12:01:21.971Z,15.98
2023-02-22T12:04:26.023Z,16.88
2023-02-22T12:07:10.671Z,17.17
2023-02-22T12:09:47.648Z,16.98
2023-02-22T12:12:32.204Z,16.52
2023-02-22T12:15:28.831Z,16.97
2023-02-22T12:18:14.265Z,15.95
2023-02-22T12:23:12.877Z,14.75
2023-02-22T12:25:47.022Z,16.08
2023-02-22T12:28:25.364Z,16.30
2023-02-22T12:31:12.140Z,14.80
2023-02-22T12:34:04.882Z,17.02
2023-02-22T12:36:40.239Z,16.02
2023-02-22T12:39:22.024Z,16.50
2023-02-22T12:41:52.904Z,15.82
2023-02-22T12:44:48.634Z,16.35
2023-02-22T12:47:21.459Z,15.45
2023-02-22T12:49:58.089Z,16.05
2023-02-22T12:52:33.775Z,15.35
2023-02-22T12:55:16.043Z,14.57
2023-02-22T12:57:42.739Z,14.70
2023-02-22T13:00:26.523Z,14.63
2023-02-22T13:03:04.446Z,14.18
2023-02-22T13:05:36.958Z,14.95
2023-02-22T13:08:13.517Z,16.45
2023-02-22T13:10:54.123Z,14.60
2023-02-22T13:13:54.585Z,12.85
2023-02-22T13:16:21.900Z,13.82
2023-02-22T13:18:59.310Z,15.27
2023-02-22T13:22:05.960Z,14.50
2023-02-22T13:24:48.718Z,13.43
2023-02-22T13:27:34.378Z,13.75
2023-02-22T13:30:02.132Z,13.23
2023-02-22T13:32:47.047Z,13.80
2023-02-22T13:35:31.737Z,14.80
2023-02-22T13:38:19.940Z,13.48
2023-02-22T13:41:05.317Z,13.43
2023-02-22T13:44:06.893Z,13.85
2023-02-22T13:47:11.521Z,13.90
2023-02-22T13:49:44.168Z,13.38
2023-02-22T13:52:20.114Z,14.07
2023-02-22T13:54:48.865Z,13.18
2023-02-22T13:57:26.193Z,13.48
2023-02-22T14:00:23.464Z,13.90
2023-02-22T14:03:03.626Z,15.60
2023-02-22T14:05:39.562Z,14.27
2023-02-22T14:08:08.137Z,14.70
2023-02-22T14:10:38.152Z,14.32
2023-02-22T14:13:06.760Z,14.70
2023-02-22T14:15:33.364Z,16.05
2023-02-22T14:18:01.952Z,14.27
2023-02-22T14:20:40.378Z,14.82
2023-02-22T14:23:40.370Z,14.98
2023-02-22T14:26:29.664Z,15.23
2023-02-22T14:29:15.667Z,14.30
2023-02-22T14:31:44.909Z,15.57
2023-02-22T14:34:18.135Z,15.65
2023-02-22T14:36:55.036Z,14.07
2023-02-22T14:39:39.934Z,15.35
2023-02-22T14:42:21.637Z,16.45
2023-02-22T14:44:48.783Z,14.65
2023-02-22T14:47:21.303Z,15.10
2023-02-22T14:49:51.194Z,16.63
2023-02-22T14:52:26.576Z,16.60
2023-02-22T14:54:58.722Z,16.13
2023-02-22T14:57:43.574Z,14.32
2023-02-22T15:00:30.870Z,15.30
2023-02-22T15:03:00.154Z,16.33
2023-02-22T15:05:30.451Z,14.38
2023-02-22T15:08:02.490Z,16.80
2023-02-22T15:10:30.373Z,16.58
2023-02-22T15:13:09.808Z,15.75
2023-02-22T15:15:40.898Z,15.38
2023-02-22T15:18:18.676Z,15.68
2023-02-22T15:20:48.387Z,15.57
2023-02-22T15:23:16.881Z,16.40
2023-02-22T15:25:49.505Z,14.95
2023-02-22T15:28:17.422Z,15.30
2023-02-22T15:30:44.565Z,15.45
2023-02-22T15:33:24.213Z,15.77
2023-02-22T15:35:57.732Z,14.77
2023-02-22T15:38:32.312Z,15.13
2023-02-22T15:41:08.491Z,15.57
2023-02-22T15:43:36.425Z,16.23
2023-02-22T15:46:03.376Z,16.02
2023-02-22T15:48:31.730Z,17.77
2023-02-22T15:51:07.086Z,15.23
2023-02-22T15:53:41.889Z,18.52
2023-02-22T15:56:14.892Z,21.83
2023-02-22T15:58:43.896Z,17.95
2023-02-22T16:01:16.627Z,14.98
2023-02-22T16:03:47.249Z,14.18
2023-02-22T16:06:38.328Z,13.93
2023-02-22T16:09:09.211Z,15.98
2023-02-22T16:11:43.152Z,15.43
2023-02-22T16:14:27.734Z,14.07
2023-02-22T16:17:24.842Z,13.53
2023-02-22T16:19:54.188Z,14.25
2023-02-22T16:22:33.783Z,13.70
2023-02-22T16:25:16.589Z,13.38
2023-02-22T16:27:48.476Z,14.77
2023-02-22T16:30:24.323Z,15.25
2023-02-22T16:32:52.271Z,14.15
2023-02-22T16:35:19.024Z,14.40
2023-02-22T16:37:51.388Z,13.82
2023-02-22T16:40:24.625Z,13.65
2023-02-22T16:42:51.610Z,14.25
2023-02-22T16:45:19.646Z,15.32
2023-02-22T16:47:46.466Z,14.10
2023-02-22T16:50:14.385Z,14.48
2023-02-22T16:52:41.388Z,14.60
2023-02-22T16:55:14.170Z,15.00
2023-02-22T16:57:43.047Z,15.20
2023-02-22T17:00:21.932Z,15.57
2023-02-22T17:02:48.663Z,15.02
2023-02-22T17:05:16.382Z,16.00
2023-02-22T17:07:43.312Z,15.95
2023-02-22T17:10:18.921Z,16.83
2023-02-22T17:12:49.943Z,15.13
2023-02-22T17:15:35.122Z,15.30
2023-02-22T17:18:06.563Z,16.65
2023-02-22T17:20:33.154Z,14.32
2023-02-22T17:23:08.628Z,15.07
2023-02-22T17:25:45.563Z,16.58
2023-02-22T17:28:12.814Z,16.05
2023-02-22T17:30:39.952Z,15.27
2023-02-22T17:33:09.606Z,16.05
2023-02-22T17:35:39.236Z,16.35
2023-02-22T17:38:06.708Z,15.73
2023-02-22T17:40:35.034Z,17.15
2023-02-22T17:43:02.470Z,17.27
2023-02-22T17:45:29.688Z,15.35
2023-02-22T17:47:59.171Z,15.65
2023-02-22T17:50:26.902Z,16.50
2023-02-22T17:52:53.814Z,16.25
2023-02-22T17:55:21.419Z,16.00
2023-02-22T17:57:56.849Z,17.17
2023-02-22T18:00:24.300Z,15.52
2023-02-22T18:02:51.582Z,16.23
2023-02-22T18:05:19.055Z,16.40
2023-02-22T18:07:46.409Z,17.20
2023-02-22T18:10:13.497Z,17.05
2023-02-22T18:12:40.213Z,17.63
2023-02-22T18:15:10.125Z,18.88
2023-02-22T18:17:37.904Z,18.33
2023-02-22T18:20:14.062Z,17.60
2023-02-22T18:22:43.289Z,19.88
2023-02-22T18:25:16.067Z,20.38
2023-02-22T18:27:45.426Z,19.35
2023-02-22T18:30:12.247Z,19.02
2023-02-22T18:32:39.387Z,18.45
2023-02-22T18:35:06.820Z,20.67
2023-02-22T18:37:33.969Z,18.95
2023-02-22T18:40:00.799Z,19.67
2023-02-22T18:42:28.718Z,19.55
2023-02-22T18:45:00.661Z,18.50
2023-02-22T18:47:27.486Z,19.10
2023-02-22T18:49:54.229Z,18.55
2023-02-22T18:52:21.117Z,20.42
2023-02-22T18:54:49.113Z,20.10
2023-02-22T18:57:16.997Z,21.35
2023-02-22T18:59:44.754Z,23.00
2023-02-22T19:02:16.492Z,21.42
2023-02-22T19:04:51.805Z,23.33
2023-02-22T19:07:21.956Z,25.33
2023-02-22T19:09:51.291Z,25.23
2023-02-22T19:12:18.808Z,25.08
2023-02-22T19:14:48.574Z,25.88
2023-02-22T19:17:21.495Z,28.60
2023-02-22T19:19:48.630Z,27.13
2023-02-22T19:22:15.429Z,29.10
2023-02-22T19:24:45.950Z,26.88
2023-02-22T19:27:13.377Z,27.25
2023-02-22T19:29:40.636Z,29.17
2023-02-22T19:32:08.874Z,28.70
2023-02-22T19:34:37.030Z,27.08
2023-02-22T19:37:05.577Z,27.42
2023-02-22T19:39:34.590Z,28.85
2023-02-22T19:42:01.302Z,28.30
2023-02-22T19:44:27.963Z,28.50
2023-02-22T19:46:55.484Z,27.75
2023-02-22T19:49:27.262Z,27.52
2023-02-22T19:51:58.198Z,30.10
2023-02-22T19:54:24.882Z,25.88
2023-02-22T19:56:51.498Z,27.67
2023-02-22T19:59:22.876Z,25.83
2023-02-22T20:01:52.936Z,26.75
2023-02-22T20:04:21.594Z,27.13
2023-02-22T20:06:54.992Z,28.00
2023-02-22T20:09:29.836Z,27.83
2023-02-22T20:14:26.179Z,29.05
2023-02-22T20:16:54.248Z,26.60
2023-02-22T20:19:22.688Z,26.92
2023-02-22T20:21:49.527Z,27.30
2023-02-22T20:24:18.385Z,29.45
2023-02-22T20:26:46.662Z,27.80
2023-02-22T20:29:14.100Z,27.25
2023-02-22T20:31:41.834Z,28.67
2023-02-22T20:34:09.809Z,27.83
2023-02-22T20:36:38.536Z,28.27
2023-02-22T20:39:13.344Z,27.95
2023-02-22T20:41:42.908Z,28.00
2023-02-22T20:44:13.533Z,27.92
2023-02-22T20:46:40.758Z,27.88
2023-02-22T20:49:08.865Z,28.13
2023-02-22T20:51:35.548Z,27.27
2023-02-22T20:54:02.226Z,28.58
2023-02-22T20:56:31.786Z,32.35
2023-02-22T20:59:01.282Z,26.98
2023-02-22T21:01:28.621Z,27.00
2023-02-22T21:04:00.460Z,28.33
2023-02-22T21:06:27.721Z,27.27
2023-02-22T21:08:57.151Z,29.88
2023-02-22T21:11:25.634Z,27.67
2023-02-22T21:13:52.920Z,28.67
2023-02-22T21:16:25.999Z,29.17
2023-02-22T21:18:54.280Z,30.02
2023-02-22T21:21:22.317Z,28.73
2023-02-22T21:23:51.822Z,29.23
2023-02-22T21:26:24.001Z,28.75
2023-02-22T21:28:55.070Z,28.55
2023-02-22T21:31:24.361Z,28.65
2023-02-22T21:33:53.889Z,28.27
2023-02-22T21:36:25.175Z,27.38
2023-02-22T21:38:57.341Z,27.58
2023-02-22T21:41:27.794Z,29.60
2023-02-22T21:43:56.690Z,26.80
2023-02-22T21:46:24.639Z,27.50
2023-02-22T21:48:51.369Z,27.00
2023-02-22T21:51:23.482Z,28.20
2023-02-22T21:53:52.458Z,28.70
2023-02-22T21:56:24.206Z,28.20
2023-02-22T21:58:59.521Z,27.95
2023-02-22T22:01:28.536Z,29.10
2023-02-22T22:03:56.555Z,28.00
2023-02-22T22:06:23.123Z,29.23
2023-02-22T22:08:50.416Z,29.50
2023-02-22T22:11:18.051Z,28.38
2023-02-22T22:13:45.273Z,29.80
2023-02-22T22:16:19.211Z,29.23
2023-02-22T22:18:46.903Z,30.17
2023-02-22T22:21:20.205Z,31.35
2023-02-22T22:23:47.660Z,28.45
2023-02-22T22:26:20.074Z,29.33
2023-02-22T22:28:49.456Z,29.27
2023-02-22T22:31:17.876Z,29.27
2023-02-22T22:33:45.405Z,29.95
2023-02-22T22:36:16.907Z,28.08
2023-02-22T22:38:46.981Z,30.00
2023-02-22T22:41:15.118Z,28.63
2023-02-22T22:43:46.036Z,30.48
2023-02-22T22:46:15.146Z,27.00
2023-02-22T22:48:42.194Z,28.50
2023-02-22T22:51:11.862Z,29.80
2023-02-22T22:53:40.920Z,29.23
2023-02-22T22:56:19.260Z,30.50
2023-02-22T22:58:50.823Z,27.98
2023-02-22T23:01:20.447Z,28.45
2023-02-22T23:03:54.916Z,26.50
2023-02-22T23:06:27.106Z,26.83
2023-02-22T23:09:11.527Z,30.42
2023-02-22T23:11:46.609Z,29.20
2023-02-22T23:14:25.637Z,29.83
2023-02-22T23:17:03.365Z,28.58
2023-02-22T23:19:32.112Z,25.90
2023-02-22T23:21:59.203Z,28.75
2023-02-22T23:24:29.406Z,27.83
2023-02-22T23:27:07.214Z,27.65
2023-02-22T23:29:39.897Z,26.52
2023-02-22T23:32:07.391Z,28.38
2023-02-22T23:34:35.880Z,24.92
2023-02-22T23:37:03.022Z,25.58
2023-02-22T23:39:29.566Z,25.95
2023-02-22T23:42:01.092Z,27.02
2023-02-22T23:44:29.017Z,25.38
2023-02-22T23:46:56.063Z,26.02
2023-02-22T23:49:27.703Z,25.55
2023-02-22T23:51:56.788Z,26.42
2023-02-22T23:54:24.550Z,26.98
2023-02-22T23:56:58.124Z,26.80
2023-02-22T23:59:26.423Z,28.08
